createdAt,value
2023-05-09T00:00:53.890Z,3.40
2023-05-09T00:03:21.258Z,4.00
2023-05-09T00:05:48.486Z,4.20
2023-05-09T00:08:15.452Z,3.50
2023-05-09T00:10:42.662Z,4.00
2023-05-09T00:13:09.796Z,4.00
2023-05-09T00:15:36.782Z,3.80
2023-05-09T00:18:03.931Z,3.80
2023-05-09T00:20:30.959Z,4.10
2023-05-09T00:22:58.023Z,4.30
2023-05-09T00:25:25.228Z,4.20
2023-05-09T00:27:52.171Z,3.60
2023-05-09T00:30:19.225Z,3.60
2023-05-09T00:32:46.184Z,3.50
2023-05-09T00:35:13.495Z,3.20
2023-05-09T00:37:40.750Z,3.10
2023-05-09T00:40:09.351Z,3.50
2023-05-09T00:42:36.654Z,2.40
2023-05-09T00:45:03.833Z,2.70
2023-05-09T00:47:30.847Z,2.00
2023-05-09T00:49:58.338Z,1.80
2023-05-09T00:52:26.152Z,1.90
2023-05-09T00:54:53.981Z,2.10
2023-05-09T00:57:21.300Z,2.00
2023-05-09T00:59:48.805Z,1.60
2023-05-09T01:02:17.321Z,1.80
2023-05-09T01:04:45.733Z,1.60
2023-05-09T01:07:26.955Z,1.80
2023-05-09T01:10:00.045Z,1.70
2023-05-09T01:12:47.371Z,1.80
2023-05-09T01:15:21.804Z,1.80
2023-05-09T01:18:39.843Z,1.50
2023-05-09T01:21:11.898Z,1.80
2023-05-09T01:23:44.660Z,1.70
2023-05-09T01:26:33.303Z,1.70
2023-05-09T01:29:21.409Z,1.90
2023-05-09T01:31:49.320Z,1.80
2023-05-09T01:34:16.707Z,1.60
2023-05-09T01:36:43.708Z,1.70
2023-05-09T01:39:13.903Z,1.60
2023-05-09T01:41:40.927Z,1.70
2023-05-09T01:44:09.960Z,1.40
2023-05-09T01:46:37.902Z,1.50
2023-05-09T01:49:05.810Z,1.40
2023-05-09T01:51:32.825Z,2.10
2023-05-09T01:53:59.806Z,1.40
2023-05-09T01:56:26.861Z,1.70
2023-05-09T01:58:54.401Z,1.40
2023-05-09T02:01:21.456Z,1.40
2023-05-09T02:03:50.780Z,1.30
2023-05-09T02:06:18.813Z,1.40
2023-05-09T02:08:45.802Z,1.50
2023-05-09T02:11:12.934Z,1.40
2023-05-09T02:13:39.906Z,2.00
2023-05-09T02:16:07.948Z,1.70
2023-05-09T02:18:37.401Z,1.70
2023-05-09T02:21:04.460Z,1.60
2023-05-09T02:23:31.536Z,1.90
2023-05-09T02:25:58.551Z,1.90
2023-05-09T02:28:25.845Z,2.10
2023-05-09T02:30:52.808Z,1.70
2023-05-09T02:33:19.795Z,1.60
2023-05-09T02:35:46.865Z,1.90
2023-05-09T02:38:13.889Z,2.20
2023-05-09T02:40:42.572Z,2.00
2023-05-09T02:43:09.928Z,1.70
2023-05-09T02:45:37.199Z,1.80
2023-05-09T02:48:06.850Z,1.70
2023-05-09T02:50:35.607Z,1.80
2023-05-09T02:53:02.554Z,2.20
2023-05-09T02:55:29.548Z,1.70
2023-05-09T02:58:09.262Z,2.20
2023-05-09T03:00:40.327Z,1.80
2023-05-09T03:03:08.130Z,1.90
2023-05-09T03:05:35.148Z,1.80
2023-05-09T03:08:02.228Z,2.00
2023-05-09T03:10:29.230Z,1.90
2023-05-09T03:12:56.276Z,2.00
2023-05-09T03:15:23.443Z,1.90
2023-05-09T03:17:50.721Z,2.00
2023-05-09T03:20:18.075Z,1.70
2023-05-09T03:22:45.043Z,1.80
2023-05-09T03:25:12.232Z,1.50
2023-05-09T03:27:39.324Z,1.60
2023-05-09T03:30:09.125Z,1.60
2023-05-09T03:32:36.339Z,2.00
2023-05-09T03:35:03.606Z,1.80
2023-05-09T03:37:30.797Z,1.40
2023-05-09T03:39:57.743Z,1.70
2023-05-09T03:42:24.977Z,1.90
2023-05-09T03:44:53.683Z,2.30
2023-05-09T03:47:21.609Z,2.70
2023-05-09T03:49:49.186Z,2.70
2023-05-09T03:52:17.439Z,2.50
2023-05-09T03:54:45.669Z,2.70
2023-05-09T03:57:13.205Z,2.60
2023-05-09T03:59:40.771Z,3.00
2023-05-09T04:02:08.041Z,2.90
2023-05-09T04:04:35.035Z,2.90
2023-05-09T04:07:02.617Z,2.90
2023-05-09T04:09:30.362Z,2.90
2023-05-09T04:11:57.345Z,2.80
2023-05-09T04:14:25.036Z,2.60
2023-05-09T04:16:52.294Z,2.70
2023-05-09T04:19:20.281Z,2.60
2023-05-09T04:21:47.290Z,2.80
2023-05-09T04:24:14.338Z,2.60
2023-05-09T04:26:43.346Z,3.20
2023-05-09T04:29:12.835Z,2.60
2023-05-09T04:31:40.421Z,2.50
2023-05-09T04:34:08.233Z,2.90
2023-05-09T04:36:35.809Z,2.50
2023-05-09T04:39:05.300Z,2.90
2023-05-09T04:41:33.123Z,2.50
2023-05-09T04:44:00.089Z,2.50
2023-05-09T04:46:27.344Z,2.40
2023-05-09T04:48:54.557Z,2.40
2023-05-09T04:51:21.627Z,2.70
2023-05-09T04:53:48.640Z,2.90
2023-05-09T04:56:16.588Z,2.90
2023-05-09T04:58:44.286Z,2.70
2023-05-09T05:01:11.788Z,3.20
2023-05-09T05:03:39.458Z,2.80
2023-05-09T05:06:06.771Z,2.60
2023-05-09T05:08:33.992Z,2.90
2023-05-09T05:11:01.126Z,2.80
2023-05-09T05:13:28.369Z,2.40
2023-05-09T05:15:58.985Z,2.50
2023-05-09T05:18:26.201Z,2.40
2023-05-09T05:20:53.716Z,4.80
2023-05-09T05:23:21.001Z,11.50
2023-05-09T05:25:49.427Z,6.80
2023-05-09T05:28:17.209Z,3.30
2023-05-09T05:30:44.621Z,2.80
2023-05-09T05:33:11.692Z,2.10
2023-05-09T05:35:38.985Z,2.70
2023-05-09T05:38:05.941Z,1.90
2023-05-09T05:40:33.053Z,1.90
2023-05-09T05:43:01.969Z,2.40
2023-05-09T05:45:31.122Z,2.10
2023-05-09T05:47:58.459Z,2.10
2023-05-09T05:50:25.512Z,2.50
2023-05-09T05:52:53.065Z,2.10
2023-05-09T05:55:20.138Z,2.00
2023-05-09T05:57:47.852Z,2.10
2023-05-09T06:00:16.527Z,2.10
2023-05-09T06:02:49.695Z,2.00
2023-05-09T06:05:22.211Z,2.30
2023-05-09T06:07:50.379Z,2.10
2023-05-09T06:10:17.361Z,1.90
2023-05-09T06:12:45.112Z,2.00
2023-05-09T06:15:12.591Z,2.00
2023-05-09T06:17:42.009Z,1.80
2023-05-09T06:20:09.212Z,1.90
2023-05-09T06:22:36.226Z,2.10
2023-05-09T06:25:03.499Z,2.10
2023-05-09T06:27:30.546Z,2.20
2023-05-09T06:29:57.603Z,1.60
2023-05-09T06:32:25.221Z,1.90
2023-05-09T06:34:52.876Z,1.80
2023-05-09T06:37:19.823Z,1.90
2023-05-09T06:39:46.764Z,2.00
2023-05-09T06:42:13.775Z,2.00
2023-05-09T06:44:41.208Z,2.30
2023-05-09T06:47:08.230Z,1.80
2023-05-09T06:49:35.209Z,1.60
2023-05-09T06:52:02.267Z,2.00
2023-05-09T06:54:29.265Z,1.90
2023-05-09T06:56:56.210Z,2.00
2023-05-09T06:59:23.156Z,1.90
2023-05-09T07:01:50.233Z,2.00
2023-05-09T07:04:17.216Z,2.10
2023-05-09T07:06:44.271Z,1.80
2023-05-09T07:09:11.288Z,1.90
2023-05-09T07:11:38.263Z,2.00
2023-05-09T07:14:05.534Z,1.80
2023-05-09T07:16:34.565Z,1.90
2023-05-09T07:19:02.922Z,2.00
2023-05-09T07:21:29.881Z,2.40
2023-05-09T07:23:56.813Z,2.10
2023-05-09T07:26:23.797Z,2.20
2023-05-09T07:28:50.895Z,2.10
2023-05-09T07:31:17.964Z,2.10
2023-05-09T07:33:44.938Z,1.90
2023-05-09T07:36:13.835Z,1.90
2023-05-09T07:38:40.823Z,2.20
2023-05-09T07:41:07.829Z,1.80
2023-05-09T07:43:35.016Z,2.00
2023-05-09T07:46:02.238Z,2.30
2023-05-09T07:48:29.282Z,1.90
2023-05-09T07:50:56.286Z,2.00
2023-05-09T07:53:23.238Z,1.90
2023-05-09T07:55:50.412Z,2.00
2023-05-09T07:58:17.416Z,1.70
2023-05-09T08:00:44.403Z,2.00
2023-05-09T08:03:11.525Z,2.40
2023-05-09T08:05:38.682Z,2.20
2023-05-09T08:08:05.634Z,2.40
2023-05-09T08:10:33.795Z,2.20
2023-05-09T08:13:00.879Z,1.90
2023-05-09T08:15:27.907Z,2.40
2023-05-09T08:17:54.940Z,2.60
2023-05-09T08:20:21.943Z,2.30
2023-05-09T08:22:48.888Z,2.10
2023-05-09T08:25:18.339Z,2.40
2023-05-09T08:27:45.383Z,2.30
2023-05-09T08:30:12.919Z,2.50
2023-05-09T08:32:39.893Z,2.30
2023-05-09T08:35:09.050Z,2.30
2023-05-09T08:37:36.779Z,2.10
2023-05-09T08:40:07.692Z,2.10
2023-05-09T08:42:36.711Z,2.40
2023-05-09T08:45:10.807Z,2.40
2023-05-09T08:47:38.274Z,2.50
2023-05-09T08:50:06.232Z,2.10
2023-05-09T08:52:33.803Z,2.10
2023-05-09T08:55:01.507Z,2.20
2023-05-09T08:57:28.538Z,2.00
2023-05-09T08:59:55.601Z,2.10
2023-05-09T09:02:22.664Z,1.80
2023-05-09T09:04:49.710Z,2.10
2023-05-09T09:07:16.862Z,2.70
2023-05-09T09:09:47.597Z,2.10
2023-05-09T09:12:15.864Z,2.50
2023-05-09T09:14:47.011Z,2.50
2023-05-09T09:17:16.328Z,2.10
2023-05-09T09:19:44.190Z,2.30
2023-05-09T09:22:13.367Z,2.70
2023-05-09T09:24:40.323Z,2.50
2023-05-09T09:27:07.345Z,2.50
2023-05-09T09:29:34.568Z,2.50
2023-05-09T09:32:06.079Z,2.70
2023-05-09T09:34:33.207Z,2.80
2023-05-09T09:37:00.169Z,2.80
2023-05-09T09:39:27.162Z,3.10
2023-05-09T09:41:54.227Z,2.90
2023-05-09T09:44:22.261Z,3.00
2023-05-09T09:46:53.625Z,3.10
2023-05-09T09:49:22.082Z,3.00
2023-05-09T09:51:53.064Z,2.70
2023-05-09T09:54:20.207Z,2.80
2023-05-09T09:56:51.893Z,2.70
2023-05-09T09:59:25.040Z,2.70
2023-05-09T10:02:05.863Z,2.80
2023-05-09T10:04:35.560Z,3.10
2023-05-09T10:07:05.284Z,3.00
2023-05-09T10:09:32.704Z,2.80
2023-05-09T10:12:04.305Z,2.40
2023-05-09T10:14:34.841Z,3.00
2023-05-09T10:17:03.251Z,3.00
2023-05-09T10:19:30.609Z,3.10
2023-05-09T10:22:05.364Z,3.00
2023-05-09T10:25:14.372Z,3.00
2023-05-09T10:27:41.988Z,3.00
2023-05-09T10:30:12.520Z,3.10
2023-05-09T10:32:43.742Z,2.80
2023-05-09T10:35:11.153Z,2.60
2023-05-09T10:37:38.093Z,2.80
2023-05-09T10:40:05.718Z,3.40
2023-05-09T10:42:32.726Z,3.80
2023-05-09T10:44:59.723Z,2.90
2023-05-09T10:47:28.122Z,2.90
2023-05-09T10:49:55.121Z,2.70
2023-05-09T10:52:22.956Z,2.50
2023-05-09T10:55:03.676Z,2.70
2023-05-09T10:57:31.605Z,2.50
2023-05-09T10:59:59.225Z,2.70
2023-05-09T11:02:35.227Z,2.90
2023-05-09T11:05:16.399Z,2.60
2023-05-09T11:07:43.640Z,2.60
2023-05-09T11:10:14.857Z,3.10
2023-05-09T11:12:58.385Z,3.10
2023-05-09T11:15:26.706Z,2.90
2023-05-09T11:18:13.073Z,2.60
2023-05-09T11:20:43.543Z,2.40
2023-05-09T11:23:13.756Z,2.80
2023-05-09T11:25:41.428Z,2.70
2023-05-09T11:28:08.571Z,2.60
2023-05-09T11:30:38.678Z,2.80
2023-05-09T11:33:07.127Z,2.30
2023-05-09T11:35:34.664Z,2.70
2023-05-09T11:38:05.767Z,2.30
2023-05-09T11:40:33.768Z,2.40
2023-05-09T11:43:01.139Z,2.40
2023-05-09T11:45:32.548Z,2.60
2023-05-09T11:50:26.718Z,2.50
2023-05-09T11:52:53.941Z,2.80
2023-05-09T11:55:25.847Z,2.50
2023-05-09T11:57:53.854Z,2.60
2023-05-09T12:00:22.420Z,2.90
2023-05-09T12:02:51.280Z,2.80
2023-05-09T12:05:19.678Z,2.50
2023-05-09T12:07:47.209Z,2.90
2023-05-09T12:10:15.793Z,3.00
2023-05-09T12:12:44.751Z,2.40
2023-05-09T12:15:13.717Z,2.80
2023-05-09T12:17:44.853Z,2.70
2023-05-09T12:20:12.328Z,2.20
2023-05-09T12:22:39.669Z,2.50
2023-05-09T12:25:08.456Z,2.50
2023-05-09T12:27:36.042Z,2.10
2023-05-09T12:30:09.949Z,2.40
2023-05-09T12:32:37.965Z,2.60
2023-05-09T12:35:05.248Z,2.60
2023-05-09T12:37:35.083Z,2.50
2023-05-09T12:40:07.160Z,2.80
2023-05-09T12:42:35.085Z,2.80
2023-05-09T12:45:04.568Z,2.80
2023-05-09T12:47:32.044Z,2.50
2023-05-09T12:49:59.666Z,2.50
2023-05-09T12:52:39.741Z,2.50
2023-05-09T12:55:14.298Z,2.60
2023-05-09T12:57:42.049Z,2.60
2023-05-09T13:00:10.010Z,2.80
2023-05-09T13:02:39.052Z,2.60
2023-05-09T13:05:10.914Z,2.90
2023-05-09T13:07:44.739Z,2.50
2023-05-09T13:10:21.632Z,2.60
2023-05-09T13:12:49.355Z,2.80
2023-05-09T13:15:16.963Z,2.40
2023-05-09T13:17:44.520Z,2.60
2023-05-09T13:20:11.593Z,2.70
2023-05-09T13:22:38.651Z,2.50
2023-05-09T13:25:06.241Z,2.90
2023-05-09T13:27:33.342Z,2.50
2023-05-09T13:30:00.606Z,2.70
2023-05-09T13:32:27.624Z,2.60
2023-05-09T13:34:54.640Z,2.70
2023-05-09T13:37:21.894Z,2.50
2023-05-09T13:39:49.088Z,2.50
2023-05-09T13:42:19.025Z,2.60
2023-05-09T13:44:46.444Z,2.40
2023-05-09T13:47:13.399Z,2.40
2023-05-09T13:49:40.356Z,2.80
2023-05-09T13:52:08.418Z,2.30
2023-05-09T13:54:35.614Z,2.60
2023-05-09T13:57:03.879Z,2.20
2023-05-09T13:59:31.696Z,2.50
2023-05-09T14:02:00.155Z,2.50
2023-05-09T14:04:28.081Z,2.90
2023-05-09T14:06:55.667Z,2.80
2023-05-09T14:09:22.985Z,2.30
2023-05-09T14:11:53.317Z,2.40
2023-05-09T14:14:21.140Z,2.70
2023-05-09T14:16:48.354Z,2.60
2023-05-09T14:19:15.635Z,2.40
2023-05-09T14:21:43.185Z,2.80
2023-05-09T14:24:11.357Z,2.90
2023-05-09T14:26:39.507Z,2.60
2023-05-09T14:29:06.581Z,2.80
2023-05-09T14:31:33.705Z,2.90
2023-05-09T14:34:00.855Z,2.40
2023-05-09T14:36:28.883Z,2.50
2023-05-09T14:38:55.863Z,2.30
2023-05-09T14:41:23.030Z,2.70
2023-05-09T14:43:50.104Z,2.70
2023-05-09T14:46:17.188Z,2.70
2023-05-09T14:48:44.209Z,2.20
2023-05-09T14:51:11.976Z,2.10
2023-05-09T14:53:42.165Z,2.20
2023-05-09T14:56:09.578Z,2.80
2023-05-09T14:58:36.637Z,2.70
2023-05-09T15:01:04.479Z,2.10
2023-05-09T15:03:31.659Z,2.70
2023-05-09T15:05:58.864Z,2.20
2023-05-09T15:08:26.166Z,1.90
2023-05-09T15:10:53.186Z,2.40
2023-05-09T15:13:20.189Z,2.30
2023-05-09T15:15:47.351Z,2.30
2023-05-09T15:18:16.653Z,2.10
2023-05-09T15:20:43.740Z,2.30
2023-05-09T15:23:12.118Z,2.40
2023-05-09T15:25:41.258Z,2.50
2023-05-09T15:28:08.242Z,2.50
2023-05-09T15:30:38.256Z,2.40
2023-05-09T15:33:05.639Z,2.50
2023-05-09T15:35:32.811Z,2.50
2023-05-09T15:38:00.116Z,2.00
2023-05-09T15:40:28.182Z,2.00
2023-05-09T15:42:55.128Z,2.20
2023-05-09T15:45:22.242Z,2.10
2023-05-09T15:47:49.325Z,1.90
2023-05-09T15:50:16.924Z,1.90
2023-05-09T15:52:44.044Z,1.70
2023-05-09T15:55:13.080Z,2.00
2023-05-09T15:57:40.160Z,1.90
2023-05-09T16:00:07.649Z,2.10
2023-05-09T16:02:39.712Z,2.30
2023-05-09T16:05:06.949Z,2.20
2023-05-09T16:07:35.807Z,2.80
2023-05-09T16:10:03.158Z,5.30
2023-05-09T16:12:32.898Z,7.30
2023-05-09T16:15:00.219Z,4.20
2023-05-09T16:17:27.458Z,3.20
2023-05-09T16:19:55.323Z,2.30
2023-05-09T16:22:22.290Z,3.70
2023-05-09T16:24:49.347Z,4.40
2023-05-09T16:27:16.691Z,2.90
2023-05-09T16:29:43.766Z,2.50
2023-05-09T16:32:10.835Z,2.80
2023-05-09T16:34:37.959Z,2.50
2023-05-09T16:37:04.951Z,2.30
2023-05-09T16:39:32.456Z,2.20
2023-05-09T16:41:59.724Z,3.70
2023-05-09T16:44:26.793Z,3.90
2023-05-09T16:46:53.882Z,5.50
2023-05-09T16:49:20.834Z,7.20
2023-05-09T16:51:47.817Z,6.80
2023-05-09T16:54:15.021Z,5.80
2023-05-09T16:56:42.477Z,4.60
2023-05-09T16:59:09.568Z,4.10
2023-05-09T17:01:36.588Z,3.40
2023-05-09T17:04:06.757Z,2.70
2023-05-09T17:06:36.821Z,2.40
2023-05-09T17:09:03.972Z,2.40
2023-05-09T17:11:31.018Z,3.20
2023-05-09T17:13:57.999Z,3.20
2023-05-09T17:16:24.994Z,2.10
2023-05-09T17:18:52.216Z,2.20
2023-05-09T17:21:20.401Z,2.00
2023-05-09T17:23:47.426Z,1.80
2023-05-09T17:26:14.510Z,1.80
2023-05-09T17:28:41.464Z,2.10
2023-05-09T17:31:08.561Z,1.90
2023-05-09T17:33:35.597Z,1.90
2023-05-09T17:36:02.732Z,2.20
2023-05-09T17:38:30.339Z,2.50
2023-05-09T17:40:57.591Z,2.80
2023-05-09T17:43:24.701Z,2.30
2023-05-09T17:45:52.580Z,2.40
2023-05-09T17:48:20.064Z,2.40
2023-05-09T17:50:47.039Z,1.70
2023-05-09T17:53:14.147Z,1.70
2023-05-09T17:55:41.621Z,2.10
2023-05-09T17:58:08.833Z,2.00
2023-05-09T18:00:35.904Z,2.00
2023-05-09T18:03:04.144Z,2.20
2023-05-09T18:05:31.234Z,2.40
2023-05-09T18:08:00.908Z,2.00
2023-05-09T18:10:28.946Z,1.90
2023-05-09T18:12:56.198Z,1.60
2023-05-09T18:15:24.073Z,1.90
2023-05-09T18:17:51.218Z,2.20
2023-05-09T18:20:18.576Z,2.50
2023-05-09T18:22:46.720Z,2.10
2023-05-09T18:25:13.906Z,2.30
2023-05-09T18:27:40.893Z,2.50
2023-05-09T18:30:08.512Z,2.40
2023-05-09T18:32:35.604Z,2.40
2023-05-09T18:35:02.682Z,2.50
2023-05-09T18:37:29.708Z,3.60
2023-05-09T18:39:56.733Z,3.50
2023-05-09T18:42:23.707Z,3.00
2023-05-09T18:44:51.266Z,2.80
2023-05-09T18:47:18.352Z,2.50
2023-05-09T18:49:45.435Z,2.20
2023-05-09T18:52:13.109Z,2.00
2023-05-09T18:54:41.332Z,2.00
2023-05-09T18:57:08.755Z,2.10
2023-05-09T18:59:35.696Z,2.10
2023-05-09T19:02:02.777Z,2.40
2023-05-09T19:04:30.008Z,2.20
2023-05-09T19:06:59.367Z,2.00
2023-05-09T19:09:26.392Z,2.30
2023-05-09T19:11:53.910Z,2.50
2023-05-09T19:14:21.021Z,3.50
2023-05-09T19:16:48.365Z,3.10
2023-05-09T19:19:15.903Z,2.60
2023-05-09T19:21:43.172Z,2.50
2023-05-09T19:24:10.263Z,2.40
2023-05-09T19:26:37.337Z,2.80
2023-05-09T19:29:08.218Z,3.00
2023-05-09T19:31:36.606Z,3.00
2023-05-09T19:34:03.713Z,4.70
2023-05-09T19:36:31.153Z,5.20
2023-05-09T19:38:58.195Z,6.70
2023-05-09T19:41:25.193Z,7.40
2023-05-09T19:43:52.297Z,7.20
2023-05-09T19:46:19.491Z,7.30
2023-05-09T19:48:46.627Z,6.80
2023-05-09T19:51:15.363Z,6.10
2023-05-09T19:53:42.376Z,6.50
2023-05-09T19:56:09.687Z,6.30
2023-05-09T19:58:36.709Z,5.70
2023-05-09T20:01:05.336Z,6.00
2023-05-09T20:03:33.632Z,5.80
2023-05-09T20:06:01.211Z,5.60
2023-05-09T20:08:28.290Z,5.10
2023-05-09T20:10:55.250Z,4.40
2023-05-09T20:13:22.314Z,4.50
2023-05-09T20:15:49.919Z,4.20
2023-05-09T20:18:16.941Z,3.90
2023-05-09T20:20:43.960Z,3.80
2023-05-09T20:23:10.999Z,3.50
2023-05-09T20:25:37.978Z,3.40
2023-05-09T20:28:05.075Z,3.30
2023-05-09T20:30:32.155Z,4.10
2023-05-09T20:32:59.192Z,4.10
2023-05-09T20:35:26.269Z,3.30
2023-05-09T20:37:53.226Z,3.00
2023-05-09T20:40:20.514Z,3.00
2023-05-09T20:42:47.461Z,2.60
2023-05-09T20:45:14.435Z,2.60
2023-05-09T20:47:41.488Z,2.90
2023-05-09T20:50:08.808Z,3.10
2023-05-09T20:52:35.894Z,2.90
2023-05-09T20:55:03.152Z,3.10
2023-05-09T20:57:30.135Z,3.00
2023-05-09T20:59:57.118Z,2.70
2023-05-09T21:02:24.178Z,2.80
2023-05-09T21:04:51.273Z,2.70
2023-05-09T21:07:21.090Z,2.30
2023-05-09T21:09:48.244Z,2.90
2023-05-09T21:12:15.407Z,3.10
2023-05-09T21:14:42.422Z,3.00
2023-05-09T21:17:09.766Z,2.90
2023-05-09T21:19:36.816Z,2.70
2023-05-09T21:22:03.779Z,2.80
2023-05-09T21:24:30.821Z,2.80
2023-05-09T21:26:58.037Z,2.60
2023-05-09T21:29:25.203Z,3.20
2023-05-09T21:31:52.176Z,2.60
2023-05-09T21:34:19.139Z,2.90
2023-05-09T21:36:46.111Z,2.80
2023-05-09T21:39:13.121Z,2.80
2023-05-09T21:41:40.344Z,2.80
2023-05-09T21:44:11.435Z,2.90
2023-05-09T21:46:38.604Z,3.00
2023-05-09T21:49:05.847Z,3.10
2023-05-09T21:51:33.595Z,2.90
2023-05-09T21:54:01.539Z,3.00
2023-05-09T21:56:28.493Z,2.90
2023-05-09T21:58:55.600Z,2.90
2023-05-09T22:01:22.647Z,3.10
2023-05-09T22:03:49.701Z,2.60
2023-05-09T22:06:16.831Z,2.70
2023-05-09T22:08:43.800Z,3.30
2023-05-09T22:11:12.644Z,2.90
2023-05-09T22:13:40.372Z,3.20
2023-05-09T22:16:07.649Z,3.20
2023-05-09T22:18:34.869Z,3.10
2023-05-09T22:21:01.819Z,2.90
2023-05-09T22:23:28.800Z,3.00
2023-05-09T22:25:55.756Z,2.60
2023-05-09T22:28:22.725Z,2.70
2023-05-09T22:30:49.967Z,2.60
2023-05-09T22:33:16.961Z,3.10
2023-05-09T22:35:43.912Z,3.00
2023-05-09T22:38:10.844Z,3.40
2023-05-09T22:40:37.800Z,2.80
2023-05-09T22:43:04.841Z,3.00
2023-05-09T22:45:31.875Z,3.20
2023-05-09T22:47:58.916Z,3.00
2023-05-09T22:50:25.921Z,3.50
2023-05-09T22:52:52.971Z,3.10
2023-05-09T22:55:20.067Z,2.80
2023-05-09T22:57:47.562Z,3.20
2023-05-09T23:00:15.369Z,3.20
2023-05-09T23:02:42.676Z,3.50
2023-05-09T23:05:09.912Z,3.80
2023-05-09T23:07:37.225Z,5.10
2023-05-09T23:10:04.989Z,3.80
2023-05-09T23:12:31.957Z,3.30
2023-05-09T23:14:58.929Z,3.70
2023-05-09T23:17:26.281Z,3.80
2023-05-09T23:19:53.390Z,3.60
2023-05-09T23:22:20.362Z,3.40
2023-05-09T23:24:47.385Z,3.40
2023-05-09T23:27:14.658Z,3.30
2023-05-09T23:29:41.605Z,3.20
2023-05-09T23:32:08.690Z,3.10
2023-05-09T23:34:36.791Z,2.80
2023-05-09T23:37:04.438Z,2.70
2023-05-09T23:39:31.695Z,2.50
2023-05-09T23:41:58.670Z,3.30
2023-05-09T23:44:25.922Z,3.30
2023-05-09T23:46:52.917Z,3.10
2023-05-09T23:49:19.895Z,2.70
2023-05-09T23:51:46.935Z,2.50
2023-05-09T23:54:13.909Z,2.60
2023-05-09T23:56:41.056Z,2.80
2023-05-09T23:59:08.108Z,2.50
